ABW5927 UAAA-ULLI
Flight info
| Callsign | ABW5927 |
|---|---|
| Flight time | 4h 45m |
| Altitude | 32000 |
| Route | ETEDA W333 BLH DCT AGADI L998 LANOR N993 UNIDU/K0876F340 N993 SONAT M60 INSOK DCT AKUGI DCT BEPOL |
| Aircraft | B77L/H-SDE1E2E3FGHIJ2J3J4J5M1RWXY/LB1D1 |
Departure
| Time | 2026-05-07 08:23 |
|---|---|
| Airport | Almaty International Airport (UAAA) |
Arrival
| Time | 2026-05-07 13:09 |
|---|---|
| Airport | Pulkovo Airport (ULLI) |
| Time | Latitude | Longitude | Altitude | Speed | Heading |
|---|---|---|---|---|---|
| 2026-05-07 07:22 | 43.35107 | 77.02161 | 2227 ft | 0 kts | 3° |
| 2026-05-07 08:10 | 43.35106 | 77.02161 | 2230 ft | 1 kts | 3° |
| 2026-05-07 08:10 | 43.35082 | 77.02158 | 2226 ft | 4 kts | 13° |
| 2026-05-07 08:10 | 43.35057 | 77.02147 | 2225 ft | 4 kts | 27° |
| 2026-05-07 08:11 | 43.35035 | 77.02126 | 2225 ft | 4 kts | 48° |
| 2026-05-07 08:11 | 43.35022 | 77.02096 | 2225 ft | 4 kts | 83° |
| 2026-05-07 08:11 | 43.35021 | 77.02086 | 2225 ft | 2 kts | 93° |
| 2026-05-07 08:17 | 43.35021 | 77.02088 | 2225 ft | 1 kts | 93° |
| 2026-05-07 08:18 | 43.35021 | 77.02105 | 2225 ft | 2 kts | 93° |
| 2026-05-07 08:18 | 43.35020 | 77.02124 | 2225 ft | 2 kts | 93° |
| 2026-05-07 08:18 | 43.35019 | 77.02142 | 2228 ft | 2 kts | 93° |
| 2026-05-07 08:18 | 43.35018 | 77.02168 | 2230 ft | 4 kts | 93° |
| 2026-05-07 08:19 | 43.35007 | 77.02213 | 2229 ft | 5 kts | 124° |
| 2026-05-07 08:19 | 43.34981 | 77.02248 | 2228 ft | 5 kts | 140° |
| 2026-05-07 08:19 | 43.34952 | 77.02282 | 2225 ft | 5 kts | 139° |
| 2026-05-07 08:19 | 43.34924 | 77.02315 | 2226 ft | 5 kts | 139° |
| 2026-05-07 08:20 | 43.34896 | 77.02349 | 2223 ft | 5 kts | 139° |
| 2026-05-07 08:20 | 43.34868 | 77.02382 | 2230 ft | 5 kts | 139° |
| 2026-05-07 08:20 | 43.34840 | 77.02415 | 2228 ft | 5 kts | 139° |
| 2026-05-07 08:20 | 43.34812 | 77.02449 | 2233 ft | 5 kts | 139° |
| 2026-05-07 08:21 | 43.34784 | 77.02483 | 2239 ft | 5 kts | 139° |
| 2026-05-07 08:21 | 43.34764 | 77.02525 | 2239 ft | 5 kts | 109° |
| 2026-05-07 08:21 | 43.34766 | 77.02575 | 2239 ft | 5 kts | 70° |
| 2026-05-07 08:21 | 43.34784 | 77.02617 | 2238 ft | 0 kts | 57° |
| 2026-05-07 08:22 | 43.34870 | 77.02794 | 2236 ft | 52 kts | 56° |
| 2026-05-07 08:22 | 43.35188 | 77.03435 | 2240 ft | 108 kts | 56° |
| 2026-05-07 08:22 | 43.35707 | 77.04490 | 2237 ft | 156 kts | 56° |
| 2026-05-07 08:23 | 43.36399 | 77.05868 | 2251 ft | 190 kts | 52° |
| 2026-05-07 08:23 | 43.37183 | 77.07356 | 2524 ft | 197 kts | 53° |
| 2026-05-07 08:23 | 43.37979 | 77.08911 | 2940 ft | 197 kts | 54° |
| 2026-05-07 08:23 | 43.38762 | 77.10461 | 3435 ft | 195 kts | 56° |
| 2026-05-07 08:24 | 43.39528 | 77.12018 | 3853 ft | 198 kts | 57° |
| 2026-05-07 08:24 | 43.40299 | 77.13619 | 4123 ft | 210 kts | 56° |
| 2026-05-07 08:24 | 43.41165 | 77.15335 | 4274 ft | 223 kts | 52° |
| 2026-05-07 08:24 | 43.42371 | 77.16786 | 4451 ft | 241 kts | 26° |
| 2026-05-07 08:25 | 43.44042 | 77.17254 | 4717 ft | 255 kts | 354° |
| 2026-05-07 08:25 | 43.45754 | 77.16516 | 5113 ft | 264 kts | 329° |
| 2026-05-07 08:25 | 43.47269 | 77.15042 | 5548 ft | 269 kts | 323° |
| 2026-05-07 08:25 | 43.48790 | 77.13502 | 6059 ft | 273 kts | 326° |
| 2026-05-07 08:26 | 43.52133 | 77.10887 | 7247 ft | 276 kts | 331° |
| 2026-05-07 08:26 | 43.53690 | 77.09341 | 7689 ft | 280 kts | 310° |
| 2026-05-07 08:26 | 43.54727 | 77.07086 | 8168 ft | 282 kts | 288° |
| 2026-05-07 08:27 | 43.55036 | 77.04435 | 8695 ft | 282 kts | 266° |
| 2026-05-07 08:27 | 43.54871 | 77.01770 | 9231 ft | 283 kts | 264° |
| 2026-05-07 08:27 | 43.54739 | 76.99142 | 9782 ft | 286 kts | 267° |
| 2026-05-07 08:27 | 43.54728 | 76.96392 | 10312 ft | 287 kts | 276° |
| 2026-05-07 08:28 | 43.55395 | 76.93723 | 10464 ft | 308 kts | 302° |
| 2026-05-07 08:28 | 43.56820 | 76.91482 | 10899 ft | 312 kts | 313° |
| 2026-05-07 08:28 | 43.58427 | 76.89374 | 11199 ft | 327 kts | 315° |
| 2026-05-07 08:28 | 43.60151 | 76.87172 | 11320 ft | 348 kts | 314° |
| 2026-05-07 08:29 | 43.61937 | 76.84788 | 11520 ft | 367 kts | 313° |
| 2026-05-07 08:29 | 43.63769 | 76.82255 | 11967 ft | 377 kts | 312° |
| 2026-05-07 08:29 | 43.65616 | 76.79649 | 12597 ft | 383 kts | 312° |
| 2026-05-07 08:29 | 43.67477 | 76.76993 | 13322 ft | 386 kts | 312° |
| 2026-05-07 08:30 | 43.69349 | 76.74309 | 14010 ft | 389 kts | 312° |
| 2026-05-07 08:30 | 43.71235 | 76.71600 | 14637 ft | 393 kts | 312° |
| 2026-05-07 08:30 | 43.73143 | 76.68860 | 15270 ft | 397 kts | 313° |
| 2026-05-07 08:30 | 43.75061 | 76.66092 | 15914 ft | 400 kts | 312° |
| 2026-05-07 08:31 | 43.76951 | 76.63246 | 16536 ft | 403 kts | 311° |
| 2026-05-07 08:31 | 43.78832 | 76.60343 | 17137 ft | 407 kts | 311° |
| 2026-05-07 08:31 | 43.80706 | 76.57448 | 17742 ft | 411 kts | 311° |
| 2026-05-07 08:31 | 43.82628 | 76.54496 | 18323 ft | 414 kts | 311° |
| 2026-05-07 08:32 | 43.84572 | 76.51527 | 18819 ft | 415 kts | 313° |
| 2026-05-07 08:32 | 43.86838 | 76.49028 | 19139 ft | 424 kts | 332° |
| 2026-05-07 08:32 | 43.89644 | 76.47730 | 19603 ft | 429 kts | 351° |
| 2026-05-07 08:32 | 43.92636 | 76.47606 | 20187 ft | 432 kts | 5° |
| 2026-05-07 08:33 | 43.95554 | 76.48618 | 20707 ft | 434 kts | 20° |
| 2026-05-07 08:33 | 43.98363 | 76.50227 | 21075 ft | 440 kts | 22° |
| 2026-05-07 08:33 | 44.01185 | 76.51911 | 21600 ft | 442 kts | 22° |
| 2026-05-07 08:33 | 44.04027 | 76.53586 | 22140 ft | 445 kts | 22° |
| 2026-05-07 08:34 | 44.06899 | 76.55231 | 22642 ft | 448 kts | 21° |
| 2026-05-07 08:34 | 44.09799 | 76.56858 | 23127 ft | 451 kts | 21° |
| 2026-05-07 08:34 | 44.12722 | 76.58462 | 23579 ft | 450 kts | 18° |
| 2026-05-07 08:34 | 44.15807 | 76.59306 | 23803 ft | 456 kts | 0° |
| 2026-05-07 08:35 | 44.18944 | 76.58800 | 24172 ft | 454 kts | 345° |
| 2026-05-07 08:35 | 44.22008 | 76.57672 | 24571 ft | 457 kts | 344° |
| 2026-05-07 08:35 | 44.25093 | 76.56531 | 24962 ft | 460 kts | 344° |
| 2026-05-07 08:35 | 44.28206 | 76.55436 | 25390 ft | 462 kts | 345° |
| 2026-05-07 08:36 | 44.31340 | 76.54379 | 25847 ft | 464 kts | 345° |
| 2026-05-07 08:36 | 44.34474 | 76.53308 | 26291 ft | 464 kts | 343° |
| 2026-05-07 08:36 | 44.37543 | 76.51877 | 26669 ft | 466 kts | 338° |
| 2026-05-07 08:36 | 44.40548 | 76.50142 | 27057 ft | 468 kts | 335° |
| 2026-05-07 08:37 | 44.43529 | 76.48286 | 27464 ft | 470 kts | 334° |
| 2026-05-07 08:37 | 44.46519 | 76.46401 | 27884 ft | 472 kts | 334° |
| 2026-05-07 08:37 | 44.49525 | 76.44534 | 28287 ft | 474 kts | 335° |
| 2026-05-07 08:37 | 44.52553 | 76.42692 | 28663 ft | 476 kts | 335° |
| 2026-05-07 08:38 | 44.55570 | 76.40889 | 29015 ft | 478 kts | 335° |
| 2026-05-07 08:38 | 44.58636 | 76.39077 | 29434 ft | 478 kts | 335° |
| 2026-05-07 08:38 | 44.61693 | 76.37282 | 30022 ft | 474 kts | 335° |
| 2026-05-07 08:38 | 44.64730 | 76.35501 | 30502 ft | 471 kts | 335° |
| 2026-05-07 08:39 | 44.67754 | 76.33726 | 30843 ft | 471 kts | 335° |
| 2026-05-07 08:39 | 44.70782 | 76.31944 | 31135 ft | 472 kts | 335° |
| 2026-05-07 08:39 | 44.73811 | 76.30157 | 31478 ft | 472 kts | 335° |
| 2026-05-07 08:39 | 44.76836 | 76.28370 | 31810 ft | 472 kts | 335° |
| 2026-05-07 08:40 | 44.82942 | 76.24753 | 31926 ft | 477 kts | 335° |
| 2026-05-07 08:40 | 44.89031 | 76.21139 | 31930 ft | 472 kts | 335° |
| 2026-05-07 08:41 | 44.95065 | 76.17550 | 31948 ft | 470 kts | 335° |
| 2026-05-07 08:41 | 45.01050 | 76.13980 | 31944 ft | 470 kts | 335° |
| 2026-05-07 08:42 | 45.07081 | 76.10375 | 31949 ft | 471 kts | 335° |
| 2026-05-07 08:42 | 45.13122 | 76.06756 | 31953 ft | 472 kts | 334° |
| 2026-05-07 08:43 | 45.19182 | 76.03118 | 31951 ft | 473 kts | 334° |
| 2026-05-07 08:43 | 45.25149 | 75.99527 | 31951 ft | 473 kts | 334° |
| 2026-05-07 08:44 | 45.31181 | 75.95889 | 31957 ft | 474 kts | 334° |
| 2026-05-07 08:44 | 45.37260 | 75.92212 | 31948 ft | 475 kts | 334° |
| 2026-05-07 08:45 | 45.43364 | 75.88512 | 31962 ft | 477 kts | 334° |
| 2026-05-07 08:45 | 45.49475 | 75.84801 | 31970 ft | 478 kts | 334° |
| 2026-05-07 08:46 | 45.55606 | 75.81068 | 31965 ft | 479 kts | 334° |
| 2026-05-07 08:46 | 45.61741 | 75.77322 | 31965 ft | 480 kts | 334° |
| 2026-05-07 08:47 | 45.67878 | 75.73568 | 31978 ft | 480 kts | 333° |
| 2026-05-07 08:47 | 45.72980 | 75.70440 | 31965 ft | 479 kts | 333° |
| 2026-05-07 08:48 | 45.80099 | 75.66062 | 31968 ft | 478 kts | 333° |
| 2026-05-07 08:48 | 45.85210 | 75.62910 | 31969 ft | 477 kts | 333° |
| 2026-05-07 08:49 | 45.91267 | 75.59165 | 31972 ft | 476 kts | 333° |
| 2026-05-07 08:49 | 45.97370 | 75.55383 | 31972 ft | 476 kts | 333° |
| 2026-05-07 08:50 | 46.03427 | 75.51621 | 31975 ft | 476 kts | 333° |
| 2026-05-07 08:50 | 46.09522 | 75.47825 | 31985 ft | 476 kts | 333° |
| 2026-05-07 08:51 | 46.15589 | 75.44039 | 31977 ft | 476 kts | 333° |
| 2026-05-07 08:51 | 46.21646 | 75.40250 | 31982 ft | 476 kts | 333° |
| 2026-05-07 08:52 | 46.27718 | 75.36468 | 31980 ft | 476 kts | 333° |
| 2026-05-07 08:52 | 46.33826 | 75.32679 | 31984 ft | 476 kts | 333° |
| 2026-05-07 08:53 | 46.39864 | 75.28922 | 31992 ft | 476 kts | 333° |
| 2026-05-07 08:53 | 46.45959 | 75.25115 | 32006 ft | 476 kts | 334° |
| 2026-05-07 08:54 | 46.52033 | 75.21311 | 31994 ft | 475 kts | 334° |
| 2026-05-07 08:54 | 46.58105 | 75.17499 | 31997 ft | 475 kts | 334° |
| 2026-05-07 08:55 | 46.64143 | 75.13698 | 32008 ft | 474 kts | 334° |
| 2026-05-07 08:55 | 46.70206 | 75.09873 | 31996 ft | 474 kts | 334° |
| 2026-05-07 08:56 | 46.76251 | 75.06050 | 31993 ft | 474 kts | 334° |
| 2026-05-07 08:56 | 46.82271 | 75.02234 | 32008 ft | 474 kts | 334° |
| 2026-05-07 08:57 | 46.88135 | 74.98162 | 31996 ft | 471 kts | 327° |
| 2026-05-07 08:57 | 46.93468 | 74.92704 | 31997 ft | 468 kts | 320° |
| 2026-05-07 08:58 | 46.98598 | 74.86775 | 31992 ft | 468 kts | 319° |
| 2026-05-07 08:58 | 47.03708 | 74.80873 | 31983 ft | 469 kts | 320° |
| 2026-05-07 08:59 | 47.08809 | 74.75016 | 31981 ft | 469 kts | 320° |
| 2026-05-07 08:59 | 47.13947 | 74.69122 | 31987 ft | 468 kts | 320° |
| 2026-05-07 09:00 | 47.19080 | 74.63221 | 32008 ft | 468 kts | 320° |
| 2026-05-07 09:00 | 47.24205 | 74.57314 | 31978 ft | 468 kts | 319° |
| 2026-05-07 09:01 | 47.29314 | 74.51409 | 31981 ft | 467 kts | 319° |
| 2026-05-07 09:01 | 47.34422 | 74.45493 | 31979 ft | 466 kts | 319° |
| 2026-05-07 09:02 | 47.39512 | 74.39579 | 31995 ft | 466 kts | 318° |
| 2026-05-07 09:02 | 47.44622 | 74.33623 | 31982 ft | 466 kts | 318° |
| 2026-05-07 09:03 | 47.49699 | 74.27693 | 31982 ft | 467 kts | 318° |
| 2026-05-07 09:03 | 47.54777 | 74.21749 | 31984 ft | 467 kts | 318° |
| 2026-05-07 09:04 | 47.59858 | 74.15785 | 31985 ft | 467 kts | 318° |
| 2026-05-07 09:04 | 47.64967 | 74.09774 | 31980 ft | 467 kts | 317° |
| 2026-05-07 09:05 | 47.70055 | 74.03772 | 31983 ft | 467 kts | 317° |
| 2026-05-07 09:05 | 47.75050 | 73.97864 | 31999 ft | 467 kts | 317° |
| 2026-05-07 09:06 | 47.80125 | 73.91847 | 31985 ft | 467 kts | 317° |
| 2026-05-07 09:06 | 47.85197 | 73.85817 | 31979 ft | 467 kts | 317° |
| 2026-05-07 09:07 | 47.90281 | 73.79757 | 31980 ft | 467 kts | 317° |
| 2026-05-07 09:07 | 47.95334 | 73.73718 | 31983 ft | 467 kts | 317° |
| 2026-05-07 09:08 | 48.00396 | 73.67653 | 31976 ft | 467 kts | 317° |
| 2026-05-07 09:08 | 48.05453 | 73.61580 | 31982 ft | 467 kts | 317° |
| 2026-05-07 09:09 | 48.10435 | 73.55340 | 31977 ft | 465 kts | 312° |
| 2026-05-07 09:09 | 48.14761 | 73.48230 | 31981 ft | 462 kts | 307° |
| 2026-05-07 09:10 | 48.18992 | 73.40949 | 31973 ft | 463 kts | 307° |
| 2026-05-07 09:10 | 48.23217 | 73.33702 | 31969 ft | 463 kts | 307° |
| 2026-05-07 09:11 | 48.27459 | 73.26453 | 31974 ft | 463 kts | 307° |
| 2026-05-07 09:11 | 48.31738 | 73.19138 | 31982 ft | 464 kts | 307° |
| 2026-05-07 09:12 | 48.35961 | 73.11899 | 31962 ft | 464 kts | 307° |
| 2026-05-07 09:12 | 48.40223 | 73.04574 | 31966 ft | 463 kts | 307° |
| 2026-05-07 09:13 | 48.44379 | 72.97409 | 31959 ft | 463 kts | 307° |
| 2026-05-07 09:13 | 48.48612 | 72.90091 | 31976 ft | 463 kts | 307° |
| 2026-05-07 09:14 | 48.52817 | 72.82801 | 31964 ft | 463 kts | 307° |
| 2026-05-07 09:14 | 48.57057 | 72.75431 | 31960 ft | 463 kts | 307° |
| 2026-05-07 09:15 | 48.61271 | 72.68086 | 31959 ft | 463 kts | 307° |
| 2026-05-07 09:15 | 48.65470 | 72.60746 | 31980 ft | 463 kts | 306° |
| 2026-05-07 09:16 | 48.69706 | 72.53320 | 31962 ft | 463 kts | 306° |
| 2026-05-07 09:16 | 48.73912 | 72.45928 | 31952 ft | 463 kts | 306° |
| 2026-05-07 09:17 | 48.78090 | 72.38563 | 31951 ft | 462 kts | 306° |
| 2026-05-07 09:17 | 48.82278 | 72.31160 | 31953 ft | 462 kts | 306° |
| 2026-05-07 09:18 | 48.86455 | 72.23756 | 31948 ft | 462 kts | 306° |
| 2026-05-07 09:18 | 48.90616 | 72.16358 | 31941 ft | 462 kts | 306° |
| 2026-05-07 09:19 | 48.94809 | 72.08884 | 31944 ft | 462 kts | 306° |
| 2026-05-07 09:19 | 48.98962 | 72.01459 | 31942 ft | 463 kts | 306° |
| 2026-05-07 09:20 | 49.03059 | 71.94114 | 31944 ft | 464 kts | 305° |
| 2026-05-07 09:20 | 49.07243 | 71.86592 | 31943 ft | 464 kts | 305° |
| 2026-05-07 09:21 | 49.11403 | 71.79091 | 31931 ft | 465 kts | 305° |
| 2026-05-07 09:21 | 49.15576 | 71.71547 | 31935 ft | 465 kts | 305° |
| 2026-05-07 09:22 | 49.19763 | 71.63955 | 31949 ft | 465 kts | 305° |
| 2026-05-07 09:22 | 49.23910 | 71.56415 | 31936 ft | 465 kts | 305° |
| 2026-05-07 09:23 | 49.28064 | 71.48839 | 31933 ft | 465 kts | 305° |
| 2026-05-07 09:23 | 49.32203 | 71.41270 | 31939 ft | 464 kts | 305° |
| 2026-05-07 09:24 | 49.36343 | 71.33677 | 31960 ft | 464 kts | 305° |
| 2026-05-07 09:24 | 49.40482 | 71.26063 | 31945 ft | 464 kts | 305° |
| 2026-05-07 09:25 | 49.44634 | 71.18403 | 31939 ft | 464 kts | 305° |
| 2026-05-07 09:25 | 49.48742 | 71.10801 | 31946 ft | 464 kts | 305° |
| 2026-05-07 09:26 | 49.52876 | 71.03132 | 31949 ft | 464 kts | 305° |
| 2026-05-07 09:26 | 49.56912 | 70.95621 | 31956 ft | 465 kts | 304° |
| 2026-05-07 09:27 | 49.61053 | 70.87891 | 31950 ft | 466 kts | 304° |
| 2026-05-07 09:28 | 49.67232 | 70.76316 | 31944 ft | 467 kts | 304° |
| 2026-05-07 09:28 | 49.71351 | 70.68576 | 31964 ft | 467 kts | 304° |
| 2026-05-07 09:29 | 49.75480 | 70.60787 | 31947 ft | 468 kts | 304° |
| 2026-05-07 09:29 | 49.79607 | 70.52981 | 31947 ft | 469 kts | 304° |
| 2026-05-07 09:30 | 49.83733 | 70.45154 | 31947 ft | 468 kts | 304° |
| 2026-05-07 09:30 | 49.87829 | 70.37362 | 31944 ft | 468 kts | 304° |
| 2026-05-07 09:31 | 49.91951 | 70.29497 | 31946 ft | 468 kts | 304° |
| 2026-05-07 09:31 | 49.96033 | 70.21684 | 31942 ft | 468 kts | 304° |
| 2026-05-07 09:32 | 50.00131 | 70.13816 | 31948 ft | 467 kts | 304° |
| 2026-05-07 09:32 | 50.04196 | 70.05989 | 31950 ft | 467 kts | 304° |
| 2026-05-07 09:33 | 50.08192 | 69.98270 | 31966 ft | 467 kts | 304° |
| 2026-05-07 09:33 | 50.12267 | 69.90377 | 31960 ft | 468 kts | 304° |
| 2026-05-07 09:34 | 50.16353 | 69.82440 | 31954 ft | 468 kts | 304° |
| 2026-05-07 09:34 | 50.20404 | 69.74546 | 31965 ft | 467 kts | 304° |
| 2026-05-07 09:35 | 50.24475 | 69.66588 | 31966 ft | 467 kts | 304° |
| 2026-05-07 09:35 | 50.28522 | 69.58649 | 31974 ft | 468 kts | 304° |
| 2026-05-07 09:36 | 50.32571 | 69.50690 | 31972 ft | 469 kts | 304° |
| 2026-05-07 09:36 | 50.35963 | 69.44000 | 31975 ft | 470 kts | 304° |
| 2026-05-07 09:37 | 50.40007 | 69.36003 | 31971 ft | 470 kts | 304° |
| 2026-05-07 09:37 | 50.44082 | 69.27919 | 31985 ft | 471 kts | 304° |
| 2026-05-07 09:38 | 50.48478 | 69.20302 | 31976 ft | 476 kts | 313° |
| 2026-05-07 09:38 | 50.53335 | 69.13209 | 31981 ft | 476 kts | 313° |
| 2026-05-07 09:39 | 50.58189 | 69.06137 | 31986 ft | 477 kts | 313° |
| 2026-05-07 09:39 | 50.62968 | 68.99087 | 31981 ft | 477 kts | 313° |
| 2026-05-07 09:40 | 50.67780 | 68.91931 | 31980 ft | 477 kts | 313° |
| 2026-05-07 09:40 | 50.72587 | 68.84754 | 31975 ft | 477 kts | 313° |
| 2026-05-07 09:41 | 50.77398 | 68.77551 | 31975 ft | 477 kts | 313° |
| 2026-05-07 09:41 | 50.82224 | 68.70307 | 31983 ft | 477 kts | 312° |
| 2026-05-07 09:42 | 50.87015 | 68.63094 | 31972 ft | 477 kts | 312° |
| 2026-05-07 09:42 | 50.91827 | 68.55828 | 31970 ft | 477 kts | 312° |
| 2026-05-07 09:43 | 50.96620 | 68.48568 | 31973 ft | 477 kts | 312° |
| 2026-05-07 09:43 | 51.01422 | 68.41272 | 31974 ft | 477 kts | 311° |
| 2026-05-07 09:44 | 51.06208 | 68.33980 | 31970 ft | 478 kts | 311° |
| 2026-05-07 09:44 | 51.11008 | 68.26644 | 31966 ft | 477 kts | 311° |
| 2026-05-07 09:45 | 51.15779 | 68.19331 | 31963 ft | 478 kts | 311° |
| 2026-05-07 09:45 | 51.20567 | 68.11967 | 31981 ft | 478 kts | 311° |
| 2026-05-07 09:46 | 51.25344 | 68.04598 | 31982 ft | 478 kts | 311° |
| 2026-05-07 09:46 | 51.30024 | 67.97359 | 31966 ft | 477 kts | 311° |
| 2026-05-07 09:47 | 51.34788 | 67.89968 | 31966 ft | 475 kts | 311° |
| 2026-05-07 09:47 | 51.39349 | 67.82457 | 31984 ft | 472 kts | 309° |
| 2026-05-07 09:48 | 51.43756 | 67.74644 | 31965 ft | 471 kts | 308° |
| 2026-05-07 09:48 | 51.48137 | 67.66811 | 31965 ft | 471 kts | 308° |
| 2026-05-07 09:49 | 51.52505 | 67.59025 | 31962 ft | 472 kts | 308° |
| 2026-05-07 09:49 | 51.56915 | 67.51172 | 31978 ft | 472 kts | 308° |
| 2026-05-07 09:50 | 51.61322 | 67.43309 | 31962 ft | 473 kts | 308° |
| 2026-05-07 09:50 | 51.65710 | 67.35453 | 31961 ft | 473 kts | 308° |
| 2026-05-07 09:51 | 51.70099 | 67.27569 | 31955 ft | 473 kts | 308° |
| 2026-05-07 09:51 | 51.74486 | 67.19663 | 31959 ft | 473 kts | 308° |
| 2026-05-07 09:52 | 51.78868 | 67.11741 | 31951 ft | 472 kts | 308° |
| 2026-05-07 09:52 | 51.83205 | 67.03876 | 31956 ft | 472 kts | 308° |
| 2026-05-07 09:53 | 51.87495 | 66.96071 | 31958 ft | 471 kts | 308° |
| 2026-05-07 09:53 | 51.91830 | 66.88161 | 31949 ft | 470 kts | 308° |
| 2026-05-07 09:54 | 51.96172 | 66.80212 | 31947 ft | 468 kts | 308° |
| 2026-05-07 09:54 | 52.00464 | 66.72329 | 31942 ft | 468 kts | 308° |
| 2026-05-07 09:55 | 52.04766 | 66.64403 | 31936 ft | 467 kts | 308° |
| 2026-05-07 09:55 | 52.09056 | 66.56475 | 31932 ft | 467 kts | 308° |
| 2026-05-07 09:56 | 52.13349 | 66.48515 | 31946 ft | 468 kts | 307° |
| 2026-05-07 09:56 | 52.17633 | 66.40547 | 31935 ft | 469 kts | 307° |
| 2026-05-07 09:57 | 52.21919 | 66.32550 | 31929 ft | 471 kts | 307° |
| 2026-05-07 09:57 | 52.26227 | 66.24487 | 31924 ft | 471 kts | 307° |
| 2026-05-07 09:58 | 52.30537 | 66.16393 | 31924 ft | 472 kts | 307° |
| 2026-05-07 09:58 | 52.34835 | 66.08297 | 31920 ft | 472 kts | 307° |
| 2026-05-07 09:59 | 52.39114 | 66.00211 | 31913 ft | 471 kts | 307° |
| 2026-05-07 09:59 | 52.43321 | 65.92232 | 31912 ft | 470 kts | 307° |
| 2026-05-07 10:00 | 52.47583 | 65.84126 | 31907 ft | 468 kts | 307° |
| 2026-05-07 10:00 | 52.51839 | 65.76004 | 31919 ft | 467 kts | 307° |
| 2026-05-07 10:01 | 52.56040 | 65.67961 | 31919 ft | 466 kts | 307° |
| 2026-05-07 10:01 | 52.60271 | 65.59833 | 31899 ft | 465 kts | 307° |
| 2026-05-07 10:02 | 52.64461 | 65.51761 | 31918 ft | 465 kts | 307° |
| 2026-05-07 10:02 | 52.68661 | 65.43639 | 31934 ft | 465 kts | 307° |
| 2026-05-07 10:03 | 52.72857 | 65.35500 | 31907 ft | 465 kts | 306° |
| 2026-05-07 10:03 | 52.77048 | 65.27346 | 31911 ft | 465 kts | 306° |
| 2026-05-07 10:04 | 52.81214 | 65.19230 | 31910 ft | 465 kts | 307° |
| 2026-05-07 10:04 | 52.85507 | 65.11149 | 31907 ft | 465 kts | 308° |
| 2026-05-07 10:05 | 52.89785 | 65.03190 | 31915 ft | 465 kts | 308° |
| 2026-05-07 10:05 | 52.93998 | 64.95302 | 31906 ft | 463 kts | 307° |
| 2026-05-07 10:06 | 52.98238 | 64.87307 | 31901 ft | 462 kts | 307° |
| 2026-05-07 10:06 | 53.02479 | 64.79272 | 31906 ft | 461 kts | 307° |
| 2026-05-07 10:07 | 53.06698 | 64.71250 | 31924 ft | 460 kts | 307° |
| 2026-05-07 10:07 | 53.10875 | 64.63285 | 31908 ft | 460 kts | 307° |
| 2026-05-07 10:08 | 53.15096 | 64.55210 | 31912 ft | 460 kts | 307° |
| 2026-05-07 10:08 | 53.19304 | 64.47136 | 31911 ft | 460 kts | 307° |
| 2026-05-07 10:09 | 53.23498 | 64.39060 | 31908 ft | 461 kts | 307° |
| 2026-05-07 10:09 | 53.27670 | 64.31002 | 31916 ft | 461 kts | 307° |
| 2026-05-07 10:10 | 53.31839 | 64.22924 | 31911 ft | 460 kts | 307° |
| 2026-05-07 10:10 | 53.36012 | 64.14811 | 31912 ft | 460 kts | 307° |
| 2026-05-07 10:11 | 53.40194 | 64.06653 | 31912 ft | 459 kts | 306° |
| 2026-05-07 10:11 | 53.44263 | 63.98690 | 31933 ft | 459 kts | 306° |
| 2026-05-07 10:12 | 53.48399 | 63.90570 | 31918 ft | 458 kts | 306° |
| 2026-05-07 10:12 | 53.52532 | 63.82429 | 31911 ft | 457 kts | 306° |
| 2026-05-07 10:13 | 53.56661 | 63.74270 | 31915 ft | 456 kts | 306° |
| 2026-05-07 10:13 | 53.60742 | 63.66177 | 31905 ft | 456 kts | 306° |
| 2026-05-07 10:14 | 53.64859 | 63.57984 | 31916 ft | 458 kts | 306° |
| 2026-05-07 10:14 | 53.68959 | 63.49801 | 31912 ft | 459 kts | 306° |
| 2026-05-07 10:15 | 53.73088 | 63.41531 | 31916 ft | 460 kts | 306° |
| 2026-05-07 10:15 | 53.77205 | 63.33259 | 31913 ft | 461 kts | 306° |
| 2026-05-07 10:16 | 53.81346 | 63.24913 | 31926 ft | 461 kts | 306° |
| 2026-05-07 10:16 | 53.85434 | 63.16644 | 31910 ft | 460 kts | 306° |
| 2026-05-07 10:17 | 53.89554 | 63.08284 | 31903 ft | 459 kts | 306° |
| 2026-05-07 10:17 | 53.93618 | 63.00006 | 31908 ft | 457 kts | 306° |
| 2026-05-07 10:18 | 53.97610 | 62.91848 | 31901 ft | 456 kts | 305° |
| 2026-05-07 10:18 | 54.01641 | 62.83583 | 31913 ft | 456 kts | 306° |
| 2026-05-07 10:19 | 54.05675 | 62.75286 | 31904 ft | 456 kts | 306° |
| 2026-05-07 10:19 | 54.09726 | 62.66924 | 31901 ft | 455 kts | 305° |
| 2026-05-07 10:20 | 54.13698 | 62.58532 | 31897 ft | 455 kts | 305° |
| 2026-05-07 10:20 | 54.17646 | 62.50091 | 31899 ft | 455 kts | 304° |
| 2026-05-07 10:21 | 54.21612 | 62.41602 | 31897 ft | 458 kts | 305° |
| 2026-05-07 10:21 | 54.25583 | 62.33085 | 31900 ft | 460 kts | 305° |
| 2026-05-07 10:22 | 54.29573 | 62.24504 | 31895 ft | 462 kts | 305° |
| 2026-05-07 10:22 | 54.33568 | 62.15883 | 31894 ft | 463 kts | 305° |
| 2026-05-07 10:23 | 54.37556 | 62.07245 | 31906 ft | 464 kts | 306° |
| 2026-05-07 10:23 | 54.41518 | 61.98638 | 31889 ft | 466 kts | 306° |
| 2026-05-07 10:24 | 54.45537 | 61.89881 | 31894 ft | 468 kts | 306° |
| 2026-05-07 10:24 | 54.49545 | 61.81120 | 31888 ft | 469 kts | 306° |
| 2026-05-07 10:25 | 54.53567 | 61.72296 | 31888 ft | 469 kts | 306° |
| 2026-05-07 10:25 | 54.57584 | 61.63453 | 31877 ft | 470 kts | 306° |
| 2026-05-07 10:26 | 54.60932 | 61.56057 | 31894 ft | 470 kts | 306° |
| 2026-05-07 10:26 | 54.64961 | 61.47126 | 31871 ft | 470 kts | 306° |
| 2026-05-07 10:27 | 54.68982 | 61.38181 | 31876 ft | 471 kts | 306° |
| 2026-05-07 10:27 | 54.72978 | 61.29258 | 31887 ft | 470 kts | 306° |
| 2026-05-07 10:28 | 54.76973 | 61.20309 | 31877 ft | 471 kts | 306° |
| 2026-05-07 10:28 | 54.80981 | 61.11284 | 31883 ft | 471 kts | 306° |
| 2026-05-07 10:29 | 54.84960 | 61.02220 | 31875 ft | 472 kts | 306° |
| 2026-05-07 10:29 | 54.88855 | 60.93321 | 31880 ft | 472 kts | 306° |
| 2026-05-07 10:30 | 54.94812 | 60.79701 | 31879 ft | 472 kts | 306° |
| 2026-05-07 10:30 | 54.98779 | 60.70659 | 31876 ft | 472 kts | 306° |
| 2026-05-07 10:31 | 55.02741 | 60.61592 | 31871 ft | 472 kts | 306° |
| 2026-05-07 10:31 | 55.06693 | 60.52507 | 31875 ft | 472 kts | 306° |
| 2026-05-07 10:32 | 55.10671 | 60.43324 | 31874 ft | 472 kts | 306° |
| 2026-05-07 10:32 | 55.14593 | 60.34236 | 31876 ft | 471 kts | 306° |
| 2026-05-07 10:33 | 55.18552 | 60.25029 | 31870 ft | 470 kts | 306° |
| 2026-05-07 10:33 | 55.22470 | 60.15888 | 31868 ft | 470 kts | 306° |
| 2026-05-07 10:34 | 55.26365 | 60.06768 | 31864 ft | 469 kts | 306° |
| 2026-05-07 10:34 | 55.30195 | 59.97777 | 31876 ft | 469 kts | 306° |
| 2026-05-07 10:35 | 55.34083 | 59.88615 | 31859 ft | 468 kts | 306° |
| 2026-05-07 10:35 | 55.37972 | 59.79419 | 31869 ft | 468 kts | 306° |
| 2026-05-07 10:36 | 55.41837 | 59.70208 | 31868 ft | 468 kts | 306° |
| 2026-05-07 10:36 | 55.45668 | 59.60966 | 31865 ft | 468 kts | 305° |
| 2026-05-07 10:37 | 55.49507 | 59.51667 | 31869 ft | 469 kts | 305° |
| 2026-05-07 10:37 | 55.53343 | 59.42353 | 31863 ft | 469 kts | 305° |
| 2026-05-07 10:38 | 55.57169 | 59.33031 | 31863 ft | 469 kts | 305° |
| 2026-05-07 10:38 | 55.60980 | 59.23709 | 31863 ft | 469 kts | 305° |
| 2026-05-07 10:39 | 55.64819 | 59.14285 | 31862 ft | 469 kts | 305° |
| 2026-05-07 10:39 | 55.68628 | 59.04899 | 31853 ft | 469 kts | 305° |
| 2026-05-07 10:40 | 55.72351 | 58.95688 | 31851 ft | 468 kts | 305° |
| 2026-05-07 10:40 | 55.76141 | 58.86273 | 31855 ft | 467 kts | 305° |
| 2026-05-07 10:41 | 55.79906 | 58.76892 | 31856 ft | 467 kts | 304° |
| 2026-05-07 10:41 | 55.83667 | 58.67477 | 31852 ft | 467 kts | 304° |
| 2026-05-07 10:42 | 55.87407 | 58.58086 | 31858 ft | 466 kts | 304° |
| 2026-05-07 10:42 | 55.91152 | 58.48614 | 31856 ft | 466 kts | 304° |
| 2026-05-07 10:43 | 55.94848 | 58.39213 | 31853 ft | 466 kts | 304° |
| 2026-05-07 10:43 | 55.98573 | 58.29705 | 31859 ft | 467 kts | 304° |
| 2026-05-07 10:44 | 56.02274 | 58.20226 | 31871 ft | 467 kts | 304° |
| 2026-05-07 10:44 | 56.05989 | 58.10673 | 31863 ft | 466 kts | 304° |
| 2026-05-07 10:45 | 56.09673 | 58.01165 | 31860 ft | 466 kts | 304° |
| 2026-05-07 10:45 | 56.13310 | 57.91746 | 31862 ft | 465 kts | 304° |
| 2026-05-07 10:46 | 56.16979 | 57.82248 | 31873 ft | 465 kts | 304° |
| 2026-05-07 10:46 | 56.20649 | 57.72731 | 31877 ft | 466 kts | 304° |
| 2026-05-07 10:47 | 56.24328 | 57.63147 | 31886 ft | 466 kts | 303° |
| 2026-05-07 10:47 | 56.28006 | 57.53522 | 31884 ft | 465 kts | 304° |
| 2026-05-07 10:48 | 56.31672 | 57.43894 | 31886 ft | 465 kts | 304° |
| 2026-05-07 10:48 | 56.35308 | 57.34295 | 31892 ft | 465 kts | 303° |
| 2026-05-07 10:49 | 56.38936 | 57.24632 | 31902 ft | 464 kts | 303° |
| 2026-05-07 10:49 | 56.42526 | 57.15026 | 31893 ft | 463 kts | 303° |
| 2026-05-07 10:50 | 56.46131 | 57.05353 | 31912 ft | 464 kts | 303° |
| 2026-05-07 10:50 | 56.49667 | 56.95829 | 31913 ft | 465 kts | 303° |
| 2026-05-07 10:51 | 56.53283 | 56.86046 | 31921 ft | 466 kts | 303° |
| 2026-05-07 10:51 | 56.56874 | 56.76296 | 31922 ft | 467 kts | 302° |
| 2026-05-07 10:52 | 56.60467 | 56.66501 | 31929 ft | 465 kts | 302° |
| 2026-05-07 10:52 | 56.64034 | 56.56733 | 31927 ft | 463 kts | 302° |
| 2026-05-07 10:53 | 56.67593 | 56.46952 | 31933 ft | 463 kts | 302° |
| 2026-05-07 10:53 | 56.71137 | 56.37172 | 31936 ft | 463 kts | 302° |
| 2026-05-07 10:54 | 56.74676 | 56.27373 | 31946 ft | 463 kts | 302° |
| 2026-05-07 10:54 | 56.78198 | 56.17614 | 31936 ft | 462 kts | 302° |
| 2026-05-07 10:55 | 56.81721 | 56.07815 | 31941 ft | 462 kts | 302° |
| 2026-05-07 10:55 | 56.85183 | 55.98144 | 31958 ft | 462 kts | 302° |
| 2026-05-07 10:56 | 56.88681 | 55.88314 | 31957 ft | 462 kts | 301° |
| 2026-05-07 10:56 | 56.92095 | 55.78408 | 31961 ft | 461 kts | 301° |
| 2026-05-07 10:57 | 56.95477 | 55.68456 | 31955 ft | 461 kts | 301° |
| 2026-05-07 10:57 | 56.98867 | 55.58471 | 31969 ft | 461 kts | 301° |
| 2026-05-07 10:58 | 57.02251 | 55.48485 | 31975 ft | 462 kts | 300° |
| 2026-05-07 10:58 | 57.05626 | 55.38496 | 31972 ft | 462 kts | 300° |
| 2026-05-07 10:59 | 57.09007 | 55.28444 | 31975 ft | 461 kts | 300° |
| 2026-05-07 10:59 | 57.12364 | 55.18424 | 31970 ft | 459 kts | 300° |
| 2026-05-07 11:00 | 57.15702 | 55.08417 | 31977 ft | 457 kts | 300° |
| 2026-05-07 11:00 | 57.18944 | 54.98654 | 31973 ft | 456 kts | 300° |
| 2026-05-07 11:01 | 57.22262 | 54.88623 | 31987 ft | 455 kts | 300° |
| 2026-05-07 11:01 | 57.25554 | 54.78629 | 31979 ft | 455 kts | 300° |
| 2026-05-07 11:02 | 57.28825 | 54.68656 | 31984 ft | 456 kts | 299° |
| 2026-05-07 11:02 | 57.32107 | 54.58607 | 31987 ft | 457 kts | 299° |
| 2026-05-07 11:03 | 57.35382 | 54.48540 | 31988 ft | 457 kts | 299° |
| 2026-05-07 11:03 | 57.38673 | 54.38379 | 31987 ft | 458 kts | 299° |
| 2026-05-07 11:04 | 57.41931 | 54.28279 | 32000 ft | 456 kts | 298° |
| 2026-05-07 11:04 | 57.45176 | 54.18175 | 31979 ft | 454 kts | 298° |
| 2026-05-07 11:05 | 57.48384 | 54.08141 | 31990 ft | 452 kts | 298° |
| 2026-05-07 11:05 | 57.51543 | 53.98221 | 31998 ft | 452 kts | 298° |
| 2026-05-07 11:06 | 57.54729 | 53.88172 | 32000 ft | 452 kts | 298° |
| 2026-05-07 11:06 | 57.57908 | 53.78105 | 32012 ft | 451 kts | 298° |
| 2026-05-07 11:07 | 57.61062 | 53.68071 | 32006 ft | 450 kts | 298° |
| 2026-05-07 11:07 | 57.64230 | 53.57952 | 32003 ft | 449 kts | 298° |
| 2026-05-07 11:08 | 57.67348 | 53.47950 | 32003 ft | 448 kts | 298° |
| 2026-05-07 11:08 | 57.70484 | 53.37844 | 32010 ft | 447 kts | 298° |
| 2026-05-07 11:09 | 57.73575 | 53.27845 | 32029 ft | 446 kts | 297° |
| 2026-05-07 11:09 | 57.76683 | 53.17745 | 32013 ft | 445 kts | 297° |
| 2026-05-07 11:10 | 57.79768 | 53.07678 | 32026 ft | 444 kts | 297° |
| 2026-05-07 11:10 | 57.82761 | 52.97867 | 32026 ft | 444 kts | 297° |
| 2026-05-07 11:11 | 57.85832 | 52.87760 | 32023 ft | 444 kts | 297° |
| 2026-05-07 11:11 | 57.88877 | 52.77694 | 32053 ft | 443 kts | 297° |
| 2026-05-07 11:12 | 57.91908 | 52.67630 | 32013 ft | 442 kts | 297° |
| 2026-05-07 11:12 | 57.94913 | 52.57610 | 32026 ft | 441 kts | 296° |
| 2026-05-07 11:13 | 57.97925 | 52.47524 | 32026 ft | 440 kts | 296° |
| 2026-05-07 11:13 | 58.00907 | 52.37496 | 32030 ft | 440 kts | 296° |
| 2026-05-07 11:14 | 58.03390 | 52.29109 | 32046 ft | 440 kts | 296° |
| 2026-05-07 11:14 | 58.06863 | 52.17338 | 32044 ft | 440 kts | 296° |
| 2026-05-07 11:15 | 58.09379 | 52.08916 | 32036 ft | 440 kts | 297° |
| 2026-05-07 11:15 | 58.12434 | 51.99165 | 32037 ft | 438 kts | 297° |
| 2026-05-07 11:16 | 58.15550 | 51.89237 | 32043 ft | 437 kts | 297° |
| 2026-05-07 11:16 | 58.18616 | 51.79361 | 32041 ft | 436 kts | 297° |
| 2026-05-07 11:17 | 58.21689 | 51.69385 | 32066 ft | 436 kts | 297° |
| 2026-05-07 11:17 | 58.24720 | 51.59504 | 32051 ft | 435 kts | 297° |
| 2026-05-07 11:18 | 58.27757 | 51.49562 | 32045 ft | 434 kts | 297° |
| 2026-05-07 11:18 | 58.30765 | 51.39673 | 32048 ft | 433 kts | 297° |
| 2026-05-07 11:19 | 58.33778 | 51.29729 | 32050 ft | 432 kts | 296° |
| 2026-05-07 11:19 | 58.36775 | 51.19794 | 32048 ft | 433 kts | 296° |
| 2026-05-07 11:20 | 58.39769 | 51.09827 | 32059 ft | 432 kts | 296° |
| 2026-05-07 11:20 | 58.42732 | 50.99920 | 32031 ft | 432 kts | 296° |
| 2026-05-07 11:21 | 58.45656 | 50.90104 | 32056 ft | 432 kts | 296° |
| 2026-05-07 11:21 | 58.48613 | 50.80129 | 32056 ft | 432 kts | 296° |
| 2026-05-07 11:22 | 58.51583 | 50.70071 | 32060 ft | 433 kts | 296° |
| 2026-05-07 11:22 | 58.54537 | 50.60031 | 32065 ft | 434 kts | 296° |
| 2026-05-07 11:23 | 58.57516 | 50.50002 | 32067 ft | 434 kts | 298° |
| 2026-05-07 11:23 | 58.61037 | 50.40503 | 32072 ft | 436 kts | 302° |
| 2026-05-07 11:24 | 58.64624 | 50.31193 | 32071 ft | 436 kts | 302° |
| 2026-05-07 11:24 | 58.68202 | 50.21822 | 32068 ft | 435 kts | 302° |
| 2026-05-07 11:25 | 58.71760 | 50.12425 | 32102 ft | 435 kts | 302° |
| 2026-05-07 11:25 | 58.75330 | 50.02946 | 32080 ft | 435 kts | 302° |
| 2026-05-07 11:26 | 58.78792 | 49.93717 | 32068 ft | 434 kts | 301° |
| 2026-05-07 11:26 | 58.82308 | 49.84307 | 32058 ft | 433 kts | 301° |
| 2026-05-07 11:27 | 58.85841 | 49.74816 | 32072 ft | 433 kts | 301° |
| 2026-05-07 11:27 | 58.89345 | 49.65364 | 32074 ft | 433 kts | 301° |
| 2026-05-07 11:28 | 58.92831 | 49.55923 | 32072 ft | 433 kts | 301° |
| 2026-05-07 11:28 | 58.96349 | 49.46361 | 32068 ft | 433 kts | 301° |
| 2026-05-07 11:29 | 58.99824 | 49.36876 | 32075 ft | 433 kts | 301° |
| 2026-05-07 11:29 | 59.03322 | 49.27325 | 32072 ft | 433 kts | 301° |
| 2026-05-07 11:30 | 59.06812 | 49.17768 | 32076 ft | 433 kts | 301° |
| 2026-05-07 11:30 | 59.10289 | 49.08203 | 32081 ft | 433 kts | 301° |
| 2026-05-07 11:31 | 59.13694 | 48.98799 | 32072 ft | 432 kts | 301° |
| 2026-05-07 11:31 | 59.17141 | 48.89243 | 32076 ft | 432 kts | 301° |
| 2026-05-07 11:32 | 59.20012 | 48.79142 | 32083 ft | 425 kts | 289° |
| 2026-05-07 11:32 | 59.21070 | 48.73763 | 32086 ft | 423 kts | 286° |
| 2026-05-07 11:33 | 59.22483 | 48.62660 | 32087 ft | 421 kts | 279° |
| 2026-05-07 11:33 | 59.23640 | 48.51383 | 32084 ft | 423 kts | 279° |
| 2026-05-07 11:34 | 59.24789 | 48.40147 | 32076 ft | 423 kts | 279° |
| 2026-05-07 11:34 | 59.25948 | 48.28913 | 32074 ft | 423 kts | 279° |
| 2026-05-07 11:35 | 59.27109 | 48.17645 | 32076 ft | 423 kts | 279° |
| 2026-05-07 11:35 | 59.28267 | 48.06334 | 32083 ft | 422 kts | 279° |
| 2026-05-07 11:36 | 59.29389 | 47.95266 | 32083 ft | 423 kts | 279° |
| 2026-05-07 11:36 | 59.30521 | 47.84001 | 32073 ft | 422 kts | 279° |
| 2026-05-07 11:37 | 59.31644 | 47.72721 | 32085 ft | 421 kts | 278° |
| 2026-05-07 11:37 | 59.32752 | 47.61488 | 32076 ft | 419 kts | 278° |
| 2026-05-07 11:38 | 59.33843 | 47.50319 | 32069 ft | 418 kts | 278° |
| 2026-05-07 11:38 | 59.34923 | 47.39150 | 32080 ft | 418 kts | 278° |
| 2026-05-07 11:39 | 59.36002 | 47.27888 | 32079 ft | 419 kts | 278° |
| 2026-05-07 11:39 | 59.37067 | 47.16666 | 32082 ft | 420 kts | 278° |
| 2026-05-07 11:40 | 59.38128 | 47.05376 | 32123 ft | 421 kts | 277° |
| 2026-05-07 11:40 | 59.39161 | 46.94283 | 32090 ft | 422 kts | 277° |
| 2026-05-07 11:41 | 59.40207 | 46.82944 | 32073 ft | 421 kts | 277° |
| 2026-05-07 11:41 | 59.41236 | 46.71663 | 32083 ft | 419 kts | 277° |
| 2026-05-07 11:42 | 59.42253 | 46.60405 | 32085 ft | 417 kts | 277° |
| 2026-05-07 11:42 | 59.43250 | 46.49253 | 32082 ft | 417 kts | 277° |
| 2026-05-07 11:43 | 59.44246 | 46.38006 | 32084 ft | 416 kts | 277° |
| 2026-05-07 11:43 | 59.45224 | 46.26838 | 32116 ft | 417 kts | 277° |
| 2026-05-07 11:44 | 59.46199 | 46.15593 | 32085 ft | 417 kts | 277° |
| 2026-05-07 11:44 | 59.47171 | 46.04262 | 32086 ft | 417 kts | 277° |
| 2026-05-07 11:45 | 59.48106 | 45.93242 | 32089 ft | 417 kts | 276° |
| 2026-05-07 11:45 | 59.49057 | 45.81932 | 32080 ft | 418 kts | 276° |
| 2026-05-07 11:46 | 59.49994 | 45.70651 | 32091 ft | 417 kts | 276° |
| 2026-05-07 11:46 | 59.50917 | 45.59435 | 32101 ft | 417 kts | 276° |
| 2026-05-07 11:47 | 59.51832 | 45.48115 | 32107 ft | 418 kts | 275° |
| 2026-05-07 11:47 | 59.52569 | 45.36833 | 32067 ft | 416 kts | 274° |
| 2026-05-07 11:48 | 59.53246 | 45.25529 | 32085 ft | 416 kts | 274° |
| 2026-05-07 11:48 | 59.53936 | 45.14177 | 32093 ft | 416 kts | 274° |
| 2026-05-07 11:49 | 59.54624 | 45.02870 | 32086 ft | 416 kts | 274° |
| 2026-05-07 11:49 | 59.55294 | 44.91738 | 32097 ft | 417 kts | 274° |
| 2026-05-07 11:50 | 59.55972 | 44.80325 | 32079 ft | 418 kts | 274° |
| 2026-05-07 11:50 | 59.56677 | 44.68945 | 32118 ft | 418 kts | 275° |
| 2026-05-07 11:51 | 59.57501 | 44.57665 | 32095 ft | 418 kts | 275° |
| 2026-05-07 11:51 | 59.58330 | 44.46269 | 32085 ft | 417 kts | 275° |
| 2026-05-07 11:52 | 59.59123 | 44.35022 | 32082 ft | 416 kts | 275° |
| 2026-05-07 11:52 | 59.59906 | 44.23687 | 32078 ft | 415 kts | 275° |
| 2026-05-07 11:53 | 59.60680 | 44.12380 | 32078 ft | 415 kts | 275° |
| 2026-05-07 11:53 | 59.61437 | 44.01108 | 32093 ft | 415 kts | 275° |
| 2026-05-07 11:54 | 59.62175 | 43.89971 | 32122 ft | 416 kts | 275° |
| 2026-05-07 11:54 | 59.62916 | 43.78638 | 32093 ft | 416 kts | 275° |
| 2026-05-07 11:55 | 59.63646 | 43.67340 | 32087 ft | 415 kts | 275° |
| 2026-05-07 11:55 | 59.64369 | 43.56007 | 32088 ft | 414 kts | 275° |
| 2026-05-07 11:56 | 59.65081 | 43.44677 | 32082 ft | 414 kts | 274° |
| 2026-05-07 11:56 | 59.65779 | 43.33393 | 32084 ft | 413 kts | 274° |
| 2026-05-07 11:57 | 59.66469 | 43.22096 | 32085 ft | 413 kts | 274° |
| 2026-05-07 11:57 | 59.67148 | 43.10819 | 32109 ft | 413 kts | 274° |
| 2026-05-07 11:58 | 59.67809 | 42.99679 | 32091 ft | 413 kts | 274° |
| 2026-05-07 11:58 | 59.68468 | 42.88401 | 32082 ft | 413 kts | 274° |
| 2026-05-07 11:59 | 59.69116 | 42.77143 | 32081 ft | 413 kts | 274° |
| 2026-05-07 11:59 | 59.69758 | 42.65858 | 32077 ft | 413 kts | 274° |
| 2026-05-07 12:00 | 59.70276 | 42.56371 | 32080 ft | 413 kts | 273° |
| 2026-05-07 12:00 | 59.70955 | 42.43271 | 32083 ft | 412 kts | 273° |
| 2026-05-07 12:01 | 59.71532 | 42.31962 | 32077 ft | 412 kts | 273° |
| 2026-05-07 12:01 | 59.72007 | 42.22545 | 32078 ft | 412 kts | 273° |
| 2026-05-07 12:02 | 59.72570 | 42.11217 | 32075 ft | 412 kts | 273° |
| 2026-05-07 12:02 | 59.73120 | 41.99964 | 32072 ft | 411 kts | 273° |
| 2026-05-07 12:03 | 59.73655 | 41.88841 | 32079 ft | 411 kts | 273° |
| 2026-05-07 12:03 | 59.74185 | 41.77582 | 32073 ft | 411 kts | 273° |
| 2026-05-07 12:04 | 59.74710 | 41.66289 | 32077 ft | 411 kts | 273° |
| 2026-05-07 12:04 | 59.75213 | 41.54962 | 32076 ft | 411 kts | 272° |
| 2026-05-07 12:05 | 59.75655 | 41.43740 | 32080 ft | 411 kts | 272° |
| 2026-05-07 12:05 | 59.76086 | 41.32450 | 32073 ft | 410 kts | 272° |
| 2026-05-07 12:06 | 59.76511 | 41.21169 | 32068 ft | 409 kts | 272° |
| 2026-05-07 12:06 | 59.76928 | 41.09935 | 32071 ft | 408 kts | 272° |
| 2026-05-07 12:07 | 59.77329 | 40.98885 | 32068 ft | 408 kts | 272° |
| 2026-05-07 12:07 | 59.77726 | 40.87676 | 32064 ft | 407 kts | 272° |
| 2026-05-07 12:08 | 59.78114 | 40.76472 | 32070 ft | 406 kts | 272° |
| 2026-05-07 12:08 | 59.78492 | 40.65274 | 32071 ft | 407 kts | 272° |
| 2026-05-07 12:09 | 59.78860 | 40.54060 | 32076 ft | 407 kts | 272° |
| 2026-05-07 12:09 | 59.79220 | 40.42835 | 32066 ft | 407 kts | 272° |
| 2026-05-07 12:10 | 59.79570 | 40.31634 | 32067 ft | 406 kts | 272° |
| 2026-05-07 12:10 | 59.79911 | 40.20429 | 32070 ft | 406 kts | 271° |
| 2026-05-07 12:11 | 59.80129 | 40.09235 | 32060 ft | 406 kts | 269° |
| 2026-05-07 12:11 | 59.80163 | 39.98288 | 32064 ft | 406 kts | 269° |
| 2026-05-07 12:12 | 59.80210 | 39.87061 | 32093 ft | 406 kts | 269° |
| 2026-05-07 12:12 | 59.80272 | 39.75863 | 32055 ft | 405 kts | 270° |
| 2026-05-07 12:13 | 59.80332 | 39.64685 | 32065 ft | 404 kts | 270° |
| 2026-05-07 12:13 | 59.80409 | 39.53531 | 32067 ft | 404 kts | 270° |
| 2026-05-07 12:14 | 59.80478 | 39.42375 | 32062 ft | 403 kts | 270° |
| 2026-05-07 12:14 | 59.80510 | 39.31237 | 32063 ft | 403 kts | 269° |
| 2026-05-07 12:15 | 59.80482 | 39.20101 | 32063 ft | 403 kts | 269° |
| 2026-05-07 12:15 | 59.80445 | 39.09028 | 32061 ft | 403 kts | 269° |
| 2026-05-07 12:16 | 59.80405 | 38.98066 | 32073 ft | 404 kts | 269° |
| 2026-05-07 12:16 | 59.80358 | 38.86895 | 32060 ft | 404 kts | 269° |
| 2026-05-07 12:17 | 59.80301 | 38.75731 | 32057 ft | 403 kts | 269° |
| 2026-05-07 12:17 | 59.80235 | 38.64612 | 32062 ft | 402 kts | 269° |
| 2026-05-07 12:18 | 59.80160 | 38.53507 | 32056 ft | 402 kts | 268° |
| 2026-05-07 12:18 | 59.80076 | 38.42401 | 32058 ft | 401 kts | 268° |
| 2026-05-07 12:19 | 59.79983 | 38.31314 | 32061 ft | 401 kts | 268° |
| 2026-05-07 12:19 | 59.79882 | 38.20227 | 32097 ft | 401 kts | 268° |
| 2026-05-07 12:20 | 59.79968 | 38.09213 | 32070 ft | 402 kts | 273° |
| 2026-05-07 12:20 | 59.80663 | 37.98356 | 32065 ft | 402 kts | 275° |
| 2026-05-07 12:21 | 59.81371 | 37.87324 | 32060 ft | 402 kts | 275° |
| 2026-05-07 12:21 | 59.82059 | 37.76323 | 32066 ft | 401 kts | 275° |
| 2026-05-07 12:22 | 59.82737 | 37.65310 | 32046 ft | 401 kts | 275° |
| 2026-05-07 12:22 | 59.83404 | 37.54296 | 32057 ft | 402 kts | 275° |
| 2026-05-07 12:23 | 59.84065 | 37.43236 | 32110 ft | 403 kts | 274° |
| 2026-05-07 12:23 | 59.84717 | 37.32164 | 32064 ft | 403 kts | 274° |
| 2026-05-07 12:24 | 59.85359 | 37.21107 | 32049 ft | 402 kts | 274° |
| 2026-05-07 12:24 | 59.85986 | 37.10137 | 32054 ft | 401 kts | 274° |
| 2026-05-07 12:25 | 59.86597 | 36.99290 | 32050 ft | 401 kts | 274° |
| 2026-05-07 12:25 | 59.87208 | 36.88279 | 32048 ft | 400 kts | 274° |
| 2026-05-07 12:26 | 59.87809 | 36.77287 | 32048 ft | 399 kts | 274° |
| 2026-05-07 12:26 | 59.88400 | 36.66287 | 32072 ft | 400 kts | 273° |
| 2026-05-07 12:27 | 59.88983 | 36.55274 | 32055 ft | 399 kts | 273° |
| 2026-05-07 12:27 | 59.89555 | 36.44283 | 32052 ft | 399 kts | 273° |
| 2026-05-07 12:28 | 59.90119 | 36.33284 | 32013 ft | 399 kts | 272° |
| 2026-05-07 12:28 | 59.90673 | 36.22280 | 32046 ft | 400 kts | 272° |
| 2026-05-07 12:29 | 59.91220 | 36.11232 | 32050 ft | 402 kts | 272° |
| 2026-05-07 12:29 | 59.91760 | 36.00126 | 32048 ft | 403 kts | 272° |
| 2026-05-07 12:30 | 59.92284 | 35.89186 | 32056 ft | 404 kts | 272° |
| 2026-05-07 12:30 | 59.92803 | 35.78138 | 32049 ft | 402 kts | 272° |
| 2026-05-07 12:31 | 59.93315 | 35.67045 | 32045 ft | 401 kts | 272° |
| 2026-05-07 12:31 | 59.93815 | 35.55987 | 32050 ft | 400 kts | 272° |
| 2026-05-07 12:32 | 59.94306 | 35.44956 | 32049 ft | 399 kts | 272° |
| 2026-05-07 12:32 | 59.94787 | 35.33945 | 32046 ft | 398 kts | 271° |
| 2026-05-07 12:33 | 59.95551 | 35.17418 | 32073 ft | 399 kts | 272° |
| 2026-05-07 12:33 | 59.96080 | 35.06372 | 32050 ft | 400 kts | 271° |
| 2026-05-07 12:34 | 59.96588 | 34.95525 | 32052 ft | 399 kts | 271° |
| 2026-05-07 12:34 | 59.97091 | 34.84491 | 32051 ft | 399 kts | 271° |
| 2026-05-07 12:35 | 59.97583 | 34.73463 | 32048 ft | 399 kts | 271° |
| 2026-05-07 12:35 | 59.98066 | 34.62438 | 32042 ft | 398 kts | 271° |
| 2026-05-07 12:36 | 59.98539 | 34.51417 | 32039 ft | 398 kts | 271° |
| 2026-05-07 12:36 | 59.99003 | 34.40384 | 32040 ft | 398 kts | 271° |
| 2026-05-07 12:37 | 59.99458 | 34.29355 | 32042 ft | 399 kts | 271° |
| 2026-05-07 12:37 | 59.99904 | 34.18313 | 32038 ft | 399 kts | 271° |
| 2026-05-07 12:38 | 60.00337 | 34.07352 | 32044 ft | 399 kts | 271° |
| 2026-05-07 12:38 | 60.00758 | 33.96488 | 32043 ft | 399 kts | 270° |
| 2026-05-07 12:39 | 60.01177 | 33.85432 | 32043 ft | 399 kts | 270° |
| 2026-05-07 12:39 | 60.01587 | 33.74367 | 32040 ft | 399 kts | 270° |
| 2026-05-07 12:40 | 60.01988 | 33.63298 | 32053 ft | 399 kts | 270° |
| 2026-05-07 12:40 | 60.02377 | 33.52288 | 32043 ft | 400 kts | 270° |
| 2026-05-07 12:41 | 60.02760 | 33.41193 | 32038 ft | 400 kts | 270° |
| 2026-05-07 12:41 | 60.03134 | 33.30089 | 32042 ft | 400 kts | 269° |
| 2026-05-07 12:42 | 60.03498 | 33.18989 | 32048 ft | 400 kts | 269° |
| 2026-05-07 12:42 | 60.03851 | 33.08042 | 31939 ft | 384 kts | 269° |
| 2026-05-07 12:43 | 60.04020 | 33.02771 | 31811 ft | 375 kts | 269° |
| 2026-05-07 12:43 | 60.04176 | 32.97792 | 31718 ft | 367 kts | 269° |
| 2026-05-07 12:43 | 60.04331 | 32.92736 | 31553 ft | 362 kts | 268° |
| 2026-05-07 12:43 | 60.04481 | 32.87731 | 31274 ft | 359 kts | 268° |
| 2026-05-07 12:44 | 60.04627 | 32.82767 | 30944 ft | 357 kts | 268° |
| 2026-05-07 12:44 | 60.04771 | 32.77823 | 30610 ft | 355 kts | 268° |
| 2026-05-07 12:44 | 60.04913 | 32.72912 | 30295 ft | 352 kts | 268° |
| 2026-05-07 12:44 | 60.05053 | 32.68034 | 29826 ft | 349 kts | 267° |
| 2026-05-07 12:45 | 60.05190 | 32.63206 | 29324 ft | 345 kts | 268° |
| 2026-05-07 12:45 | 60.05324 | 32.58431 | 28858 ft | 341 kts | 268° |
| 2026-05-07 12:45 | 60.05454 | 32.53727 | 28386 ft | 337 kts | 268° |
| 2026-05-07 12:45 | 60.05580 | 32.49070 | 27926 ft | 333 kts | 268° |
| 2026-05-07 12:46 | 60.05704 | 32.44462 | 27460 ft | 330 kts | 268° |
| 2026-05-07 12:46 | 60.05825 | 32.39964 | 27014 ft | 327 kts | 268° |
| 2026-05-07 12:46 | 60.05944 | 32.35435 | 26580 ft | 324 kts | 268° |
| 2026-05-07 12:46 | 60.06059 | 32.30945 | 26120 ft | 322 kts | 268° |
| 2026-05-07 12:47 | 60.06103 | 32.26510 | 25792 ft | 316 kts | 264° |
| 2026-05-07 12:47 | 60.06021 | 32.22071 | 25470 ft | 324 kts | 263° |
| 2026-05-07 12:47 | 60.05900 | 32.17496 | 25127 ft | 333 kts | 263° |
| 2026-05-07 12:47 | 60.05774 | 32.12851 | 24778 ft | 336 kts | 264° |
| 2026-05-07 12:48 | 60.05652 | 32.08164 | 24418 ft | 338 kts | 264° |
| 2026-05-07 12:48 | 60.05533 | 32.03454 | 24055 ft | 340 kts | 264° |
| 2026-05-07 12:48 | 60.05421 | 31.98867 | 23700 ft | 340 kts | 264° |
| 2026-05-07 12:48 | 60.05306 | 31.94128 | 23280 ft | 341 kts | 264° |
| 2026-05-07 12:49 | 60.05230 | 31.90996 | 23016 ft | 340 kts | 264° |
| 2026-05-07 12:49 | 60.05078 | 31.84741 | 22507 ft | 338 kts | 264° |
| 2026-05-07 12:49 | 60.04963 | 31.80051 | 22140 ft | 336 kts | 264° |
| 2026-05-07 12:49 | 60.04846 | 31.75388 | 21779 ft | 335 kts | 264° |
| 2026-05-07 12:50 | 60.04728 | 31.70747 | 21431 ft | 333 kts | 264° |
| 2026-05-07 12:50 | 60.04648 | 31.67627 | 21198 ft | 332 kts | 264° |
| 2026-05-07 12:50 | 60.04529 | 31.63025 | 20838 ft | 330 kts | 264° |
| 2026-05-07 12:50 | 60.04408 | 31.58446 | 20492 ft | 329 kts | 264° |
| 2026-05-07 12:51 | 60.04288 | 31.53933 | 20148 ft | 328 kts | 264° |
| 2026-05-07 12:51 | 60.04166 | 31.49380 | 19802 ft | 328 kts | 264° |
| 2026-05-07 12:51 | 60.04042 | 31.44824 | 19457 ft | 327 kts | 264° |
| 2026-05-07 12:51 | 60.03915 | 31.40284 | 19113 ft | 327 kts | 264° |
| 2026-05-07 12:52 | 60.03780 | 31.35749 | 18794 ft | 326 kts | 262° |
| 2026-05-07 12:52 | 60.03454 | 31.31268 | 18431 ft | 325 kts | 257° |
| 2026-05-07 12:52 | 60.02990 | 31.26842 | 18049 ft | 326 kts | 256° |
| 2026-05-07 12:52 | 60.02495 | 31.22421 | 17666 ft | 326 kts | 256° |
| 2026-05-07 12:53 | 60.02004 | 31.18002 | 17304 ft | 325 kts | 257° |
| 2026-05-07 12:53 | 60.01523 | 31.13594 | 16953 ft | 325 kts | 257° |
| 2026-05-07 12:53 | 60.01050 | 31.09186 | 16605 ft | 324 kts | 257° |
| 2026-05-07 12:53 | 60.00582 | 31.04773 | 16263 ft | 324 kts | 257° |
| 2026-05-07 12:54 | 60.00116 | 31.00362 | 15915 ft | 324 kts | 257° |
| 2026-05-07 12:54 | 59.99667 | 30.96109 | 15592 ft | 325 kts | 257° |
| 2026-05-07 12:54 | 59.99201 | 30.91691 | 15245 ft | 325 kts | 257° |
| 2026-05-07 12:54 | 59.98733 | 30.87271 | 14900 ft | 326 kts | 257° |
| 2026-05-07 12:55 | 59.98262 | 30.82835 | 14552 ft | 327 kts | 257° |
| 2026-05-07 12:55 | 59.97796 | 30.78453 | 14212 ft | 328 kts | 258° |
| 2026-05-07 12:55 | 59.97324 | 30.74022 | 14013 ft | 322 kts | 258° |
| 2026-05-07 12:55 | 59.96859 | 30.69677 | 13694 ft | 318 kts | 258° |
| 2026-05-07 12:56 | 59.96400 | 30.65412 | 13314 ft | 309 kts | 258° |
| 2026-05-07 12:56 | 59.95956 | 30.61301 | 12937 ft | 297 kts | 258° |
| 2026-05-07 12:56 | 59.95853 | 30.57283 | 12540 ft | 290 kts | 281° |
| 2026-05-07 12:56 | 59.96551 | 30.53545 | 12228 ft | 288 kts | 300° |
| 2026-05-07 12:57 | 59.97688 | 30.50306 | 11918 ft | 281 kts | 300° |
| 2026-05-07 12:57 | 59.98504 | 30.46805 | 11598 ft | 279 kts | 289° |
| 2026-05-07 12:57 | 59.99103 | 30.43095 | 11293 ft | 283 kts | 287° |
| 2026-05-07 12:57 | 59.99682 | 30.39318 | 10957 ft | 283 kts | 287° |
| 2026-05-07 12:58 | 60.00263 | 30.35593 | 10615 ft | 277 kts | 288° |
| 2026-05-07 12:58 | 60.00845 | 30.31964 | 10272 ft | 271 kts | 288° |
| 2026-05-07 12:58 | 60.01428 | 30.28406 | 9941 ft | 267 kts | 289° |
| 2026-05-07 12:58 | 60.02007 | 30.24900 | 9576 ft | 264 kts | 289° |
| 2026-05-07 12:59 | 60.02580 | 30.21433 | 9221 ft | 261 kts | 289° |
| 2026-05-07 12:59 | 60.03144 | 30.18019 | 8858 ft | 257 kts | 289° |
| 2026-05-07 12:59 | 60.03573 | 30.14584 | 8484 ft | 253 kts | 279° |
| 2026-05-07 12:59 | 60.03795 | 30.11118 | 8139 ft | 250 kts | 278° |
| 2026-05-07 13:00 | 60.04001 | 30.07669 | 7782 ft | 250 kts | 278° |
| 2026-05-07 13:00 | 60.04221 | 30.04270 | 7479 ft | 249 kts | 278° |
| 2026-05-07 13:00 | 60.04448 | 30.00839 | 7151 ft | 249 kts | 279° |
| 2026-05-07 13:00 | 60.04672 | 29.97546 | 6850 ft | 250 kts | 279° |
| 2026-05-07 13:01 | 60.04897 | 29.94102 | 6526 ft | 250 kts | 278° |
| 2026-05-07 13:01 | 60.05105 | 29.90650 | 6172 ft | 248 kts | 272° |
| 2026-05-07 13:01 | 60.04693 | 29.87388 | 5750 ft | 243 kts | 232° |
| 2026-05-07 13:01 | 60.03405 | 29.85384 | 5423 ft | 233 kts | 194° |
| 2026-05-07 13:02 | 60.01833 | 29.84765 | 5139 ft | 232 kts | 181° |
| 2026-05-07 13:02 | 60.00202 | 29.84637 | 4816 ft | 237 kts | 178° |
| 2026-05-07 13:02 | 59.98537 | 29.84596 | 4483 ft | 240 kts | 178° |
| 2026-05-07 13:02 | 59.96876 | 29.84560 | 4127 ft | 236 kts | 178° |
| 2026-05-07 13:03 | 59.95264 | 29.84515 | 3775 ft | 233 kts | 179° |
| 2026-05-07 13:03 | 59.93675 | 29.84655 | 3403 ft | 224 kts | 161° |
| 2026-05-07 13:03 | 59.92351 | 29.86078 | 3057 ft | 213 kts | 142° |
| 2026-05-07 13:03 | 59.91137 | 29.87719 | 2905 ft | 209 kts | 144° |
| 2026-05-07 13:04 | 59.89939 | 29.89289 | 2635 ft | 202 kts | 143° |
| 2026-05-07 13:04 | 59.88782 | 29.90810 | 2572 ft | 201 kts | 143° |
| 2026-05-07 13:04 | 59.87607 | 29.92365 | 2569 ft | 203 kts | 143° |
| 2026-05-07 13:04 | 59.86447 | 29.93891 | 2510 ft | 195 kts | 144° |
| 2026-05-07 13:05 | 59.85436 | 29.95508 | 2468 ft | 179 kts | 122° |
| 2026-05-07 13:05 | 59.84956 | 29.97699 | 2491 ft | 172 kts | 104° |
| 2026-05-07 13:05 | 59.84626 | 30.00006 | 2432 ft | 176 kts | 103° |
| 2026-05-07 13:05 | 59.84326 | 30.02359 | 2141 ft | 175 kts | 103° |
| 2026-05-07 13:06 | 59.84010 | 30.04570 | 1976 ft | 158 kts | 105° |
| 2026-05-07 13:06 | 59.83650 | 30.06627 | 1822 ft | 159 kts | 105° |
| 2026-05-07 13:06 | 59.83329 | 30.08718 | 1666 ft | 157 kts | 105° |
| 2026-05-07 13:06 | 59.83015 | 30.10783 | 1480 ft | 158 kts | 104° |
| 2026-05-07 13:07 | 59.82683 | 30.12875 | 1236 ft | 158 kts | 105° |
| 2026-05-07 13:07 | 59.82380 | 30.14969 | 1004 ft | 158 kts | 102° |
| 2026-05-07 13:07 | 59.82122 | 30.17032 | 861 ft | 155 kts | 102° |
| 2026-05-07 13:07 | 59.81813 | 30.19092 | 688 ft | 157 kts | 106° |
| 2026-05-07 13:08 | 59.81459 | 30.21217 | 473 ft | 162 kts | 106° |
| 2026-05-07 13:08 | 59.81147 | 30.23372 | 255 ft | 163 kts | 106° |
| 2026-05-07 13:08 | 59.80830 | 30.25502 | 99 ft | 156 kts | 105° |
| 2026-05-07 13:08 | 59.80545 | 30.27413 | 89 ft | 130 kts | 106° |
| 2026-05-07 13:09 | 59.80324 | 30.28896 | 86 ft | 94 kts | 106° |
| 2026-05-07 13:09 | 59.80199 | 30.29745 | 86 ft | 46 kts | 106° |
| 2026-05-07 13:09 | 59.80141 | 30.30135 | 83 ft | 15 kts | 107° |
| 2026-05-07 13:09 | 59.80113 | 30.30258 | 87 ft | 10 kts | 134° |
| 2026-05-07 13:10 | 59.80049 | 30.30252 | 85 ft | 10 kts | 212° |
| 2026-05-07 13:10 | 59.80003 | 30.30165 | 86 ft | 8 kts | 225° |
| 2026-05-07 13:10 | 59.79966 | 30.30086 | 86 ft | 8 kts | 227° |
| 2026-05-07 13:10 | 59.79938 | 30.29997 | 86 ft | 8 kts | 253° |
| 2026-05-07 13:11 | 59.79940 | 30.29916 | 85 ft | 0 kts | 284° |
| 2026-05-07 13:12 | 59.79942 | 30.29904 | 85 ft | 5 kts | 284° |
| 2026-05-07 13:12 | 59.79952 | 30.29826 | 85 ft | 6 kts | 285° |
| 2026-05-07 13:12 | 59.79964 | 30.29746 | 85 ft | 6 kts | 287° |
| 2026-05-07 13:12 | 59.79976 | 30.29667 | 86 ft | 6 kts | 287° |
| 2026-05-07 13:13 | 59.79988 | 30.29587 | 86 ft | 6 kts | 287° |
| 2026-05-07 13:13 | 59.79990 | 30.29523 | 83 ft | 4 kts | 253° |
| 2026-05-07 13:13 | 59.79967 | 30.29487 | 85 ft | 4 kts | 207° |
| 2026-05-07 13:13 | 59.79945 | 30.29470 | 85 ft | 2 kts | 200° |
| 2026-05-07 13:14 | 59.79923 | 30.29457 | 87 ft | 4 kts | 196° |
| 2026-05-07 13:14 | 59.79905 | 30.29447 | 86 ft | 0 kts | 196° |